ESMS

Malmö Sturup Airport

Malmö, Sweden
METAR ESMS 221750Z 13006KT CAVOK 11/05 Q1013
Observed Flight Rules
Apr-22 @ 17:50 UTC (16 minutes ago) Visual Flight Rules
Wind Visibility Clouds
130° at 6 knots 10,000+ meters
  • Clear skies
Temperatures Readings
Current 11°C / 52°F
Dewpoint 5°C / 41°F
Humidity 67%
Altimeter 29.91" Hg
Pressure 1013 hPa
Elevation 106
METAR ESMS 221750Z 13006KT CAVOK 11/05 Q1013
Observed Flight Rules
Apr-22 @ 17:50 UTC
(16 minutes ago)
VFR
Wind Visibility
130° at 6 knots 10,000+ meters
Clouds
  • Clear skies
Temperature Dewpoint
11°C / 52°F 5°C / 41°F
Humidity Altimeter Pressure
67% 29.91" Hg 1013 hPa